sensor_id;sensor_type;location;lat;lon;timestamp;P1;durP1;ratioP1;P2;durP2;ratioP2
17214;SDS011;8723;51.502;6.918;2023-10-09T06:51:54;12.68;;;10.27;;
17214;SDS011;8723;51.502;6.918;2023-10-09T06:54:40;12.73;;;10.23;;
17214;SDS011;8723;51.502;6.918;2023-10-09T06:57:17;13.43;;;10.77;;
17214;SDS011;8723;51.502;6.918;2023-10-09T06:59:59;14.67;;;10.80;;
17214;SDS011;8723;51.502;6.918;2023-10-09T07:03:03;12.55;;;10.52;;
17214;SDS011;8723;51.502;6.918;2023-10-09T07:05:37;14.30;;;11.25;;
17214;SDS011;8723;51.502;6.918;2023-10-09T07:08:28;12.02;;;10.55;;
17214;SDS011;8723;51.502;6.918;2023-10-09T07:10:58;13.77;;;11.10;;
17214;SDS011;8723;51.502;6.918;2023-10-09T07:13:46;16.15;;;11.63;;
17214;SDS011;8723;51.502;6.918;2023-10-09T07:16:20;12.73;;;10.40;;
17214;SDS011;8723;51.502;6.918;2023-10-09T07:18:54;13.23;;;10.85;;
17214;SDS011;8723;51.502;6.918;2023-10-09T07:21:35;12.85;;;10.65;;
17214;SDS011;8723;51.502;6.918;2023-10-09T07:24:12;11.45;;;9.68;;
17214;SDS011;8723;51.502;6.918;2023-10-09T07:26:43;12.82;;;10.88;;
17214;SDS011;8723;51.502;6.918;2023-10-09T07:29:18;14.40;;;11.07;;
17214;SDS011;8723;51.502;6.918;2023-10-09T07:31:52;12.85;;;10.48;;
17214;SDS011;8723;51.502;6.918;2023-10-09T07:34:24;14.63;;;11.47;;
17214;SDS011;8723;51.502;6.918;2023-10-09T07:37:19;13.32;;;10.55;;
17214;SDS011;8723;51.502;6.918;2023-10-09T07:39:51;11.87;;;10.13;;
17214;SDS011;8723;51.502;6.918;2023-10-09T07:42:23;11.98;;;10.00;;
17214;SDS011;8723;51.502;6.918;2023-10-09T07:44:59;12.32;;;10.40;;
17214;SDS011;8723;51.502;6.918;2023-10-09T07:47:37;13.90;;;10.83;;
17214;SDS011;8723;51.502;6.918;2023-10-09T07:50:18;13.63;;;10.47;;
17214;SDS011;8723;51.502;6.918;2023-10-09T07:52:47;14.82;;;11.73;;
17214;SDS011;8723;51.502;6.918;2023-10-09T07:55:16;13.68;;;11.60;;
17214;SDS011;8723;51.502;6.918;2023-10-09T07:57:54;15.63;;;12.45;;
17214;SDS011;8723;51.502;6.918;2023-10-09T08:00:21;13.93;;;11.60;;
17214;SDS011;8723;51.502;6.918;2023-10-09T08:03:23;14.63;;;12.07;;
17214;SDS011;8723;51.502;6.918;2023-10-09T08:05:50;13.70;;;11.35;;
17214;SDS011;8723;51.502;6.918;2023-10-09T08:08:17;12.50;;;11.07;;
17214;SDS011;8723;51.502;6.918;2023-10-09T08:11:08;14.80;;;11.65;;
17214;SDS011;8723;51.502;6.918;2023-10-09T08:13:52;14.45;;;12.10;;
17214;SDS011;8723;51.502;6.918;2023-10-09T08:16:27;14.07;;;11.48;;
17214;SDS011;8723;51.502;6.918;2023-10-09T08:19:02;15.60;;;11.80;;
17214;SDS011;8723;51.502;6.918;2023-10-09T08:21:52;15.32;;;11.75;;
17214;SDS011;8723;51.502;6.918;2023-10-09T08:24:42;13.55;;;11.38;;
17214;SDS011;8723;51.502;6.918;2023-10-09T08:27:15;13.27;;;11.57;;
17214;SDS011;8723;51.502;6.918;2023-10-09T08:30:12;13.57;;;11.43;;
17214;SDS011;8723;51.502;6.918;2023-10-09T08:32:53;14.18;;;11.68;;
17214;SDS011;8723;51.502;6.918;2023-10-09T08:35:27;15.82;;;12.00;;
17214;SDS011;8723;51.502;6.918;2023-10-09T08:37:58;16.27;;;12.50;;
17214;SDS011;8723;51.502;6.918;2023-10-09T08:40:33;16.30;;;12.40;;
17214;SDS011;8723;51.502;6.918;2023-10-09T08:43:06;15.05;;;11.95;;
17214;SDS011;8723;51.502;6.918;2023-10-09T08:45:36;14.60;;;12.60;;
17214;SDS011;8723;51.502;6.918;2023-10-09T08:48:05;14.20;;;12.10;;
17214;SDS011;8723;51.502;6.918;2023-10-09T08:50:33;16.52;;;13.02;;
17214;SDS011;8723;51.502;6.918;2023-10-09T08:53:01;16.67;;;13.30;;
17214;SDS011;8723;51.502;6.918;2023-10-09T08:55:29;16.42;;;12.93;;
17214;SDS011;8723;51.502;6.918;2023-10-09T08:57:56;17.23;;;13.00;;
17214;SDS011;8723;51.502;6.918;2023-10-09T09:00:25;15.82;;;12.80;;
17214;SDS011;8723;51.502;6.918;2023-10-09T09:02:58;15.43;;;12.57;;
17214;SDS011;8723;51.502;6.918;2023-10-09T09:05:26;14.27;;;12.25;;
17214;SDS011;8723;51.502;6.918;2023-10-09T09:07:53;13.43;;;12.03;;
17214;SDS011;8723;51.502;6.918;2023-10-09T09:10:27;15.48;;;12.25;;
17214;SDS011;8723;51.502;6.918;2023-10-09T09:13:00;16.15;;;12.20;;
17214;SDS011;8723;51.502;6.918;2023-10-09T09:15:30;15.82;;;12.50;;
17214;SDS011;8723;51.502;6.918;2023-10-09T09:18:04;12.85;;;10.95;;
17214;SDS011;8723;51.502;6.918;2023-10-09T09:20:33;14.30;;;12.13;;
17214;SDS011;8723;51.502;6.918;2023-10-09T09:23:05;14.48;;;11.43;;
17214;SDS011;8723;51.502;6.918;2023-10-09T09:25:40;16.15;;;12.50;;
17214;SDS011;8723;51.502;6.918;2023-10-09T09:28:13;14.02;;;12.23;;
17214;SDS011;8723;51.502;6.918;2023-10-09T09:30:46;14.05;;;10.85;;
17214;SDS011;8723;51.502;6.918;2023-10-09T09:33:19;16.17;;;12.00;;
17214;SDS011;8723;51.502;6.918;2023-10-09T09:35:55;15.38;;;12.20;;
17214;SDS011;8723;51.502;6.918;2023-10-09T09:38:24;14.55;;;11.95;;
17214;SDS011;8723;51.502;6.918;2023-10-09T09:40:54;13.60;;;12.07;;
17214;SDS011;8723;51.502;6.918;2023-10-09T09:43:27;14.02;;;12.00;;
17214;SDS011;8723;51.502;6.918;2023-10-09T09:45:57;13.95;;;12.00;;
17214;SDS011;8723;51.502;6.918;2023-10-09T09:48:29;15.50;;;12.38;;
17214;SDS011;8723;51.502;6.918;2023-10-09T09:50:57;12.95;;;11.15;;
17214;SDS011;8723;51.502;6.918;2023-10-09T09:53:31;15.80;;;12.33;;
17214;SDS011;8723;51.502;6.918;2023-10-09T09:55:59;14.95;;;12.65;;
17214;SDS011;8723;51.502;6.918;2023-10-09T09:58:28;15.60;;;12.40;;
17214;SDS011;8723;51.502;6.918;2023-10-09T10:01:08;15.53;;;11.73;;
17214;SDS011;8723;51.502;6.918;2023-10-09T10:03:42;13.23;;;10.70;;
17214;SDS011;8723;51.502;6.918;2023-10-09T10:06:13;13.43;;;10.50;;
17214;SDS011;8723;51.502;6.918;2023-10-09T10:08:44;13.55;;;10.68;;
17214;SDS011;8723;51.502;6.918;2023-10-09T10:14:17;12.50;;;10.43;;
17214;SDS011;8723;51.502;6.918;2023-10-09T10:17:01;13.70;;;10.98;;
17214;SDS011;8723;51.502;6.918;2023-10-09T10:22:26;11.73;;;9.93;;
17214;SDS011;8723;51.502;6.918;2023-10-09T10:24:55;14.25;;;10.48;;
17214;SDS011;8723;51.502;6.918;2023-10-09T10:27:22;13.55;;;10.02;;
17214;SDS011;8723;51.502;6.918;2023-10-09T10:33:00;16.05;;;11.63;;
17214;SDS011;8723;51.502;6.918;2023-10-09T10:35:35;15.18;;;10.88;;
17214;SDS011;8723;51.502;6.918;2023-10-09T10:38:24;14.20;;;11.23;;
17214;SDS011;8723;51.502;6.918;2023-10-09T10:41:07;12.98;;;10.82;;
17214;SDS011;8723;51.502;6.918;2023-10-09T10:43:42;15.43;;;11.30;;
17214;SDS011;8723;51.502;6.918;2023-10-09T10:46:25;15.88;;;11.95;;
17214;SDS011;8723;51.502;6.918;2023-10-09T10:49:04;16.03;;;11.77;;
17214;SDS011;8723;51.502;6.918;2023-10-09T10:51:46;14.18;;;11.02;;
17214;SDS011;8723;51.502;6.918;2023-10-09T10:54:26;13.95;;;11.70;;
17214;SDS011;8723;51.502;6.918;2023-10-09T10:57:13;14.18;;;10.35;;
17214;SDS011;8723;51.502;6.918;2023-10-09T10:59:45;15.00;;;10.77;;
17214;SDS011;8723;51.502;6.918;2023-10-09T11:02:14;13.68;;;10.35;;
17214;SDS011;8723;51.502;6.918;2023-10-09T11:04:49;14.15;;;10.50;;
17214;SDS011;8723;51.502;6.918;2023-10-09T11:07:39;13.20;;;10.88;;
17214;SDS011;8723;51.502;6.918;2023-10-09T11:10:06;15.10;;;10.88;;
17214;SDS011;8723;51.502;6.918;2023-10-09T11:12:42;11.32;;;10.05;;
17214;SDS011;8723;51.502;6.918;2023-10-09T11:15:29;11.85;;;10.20;;
17214;SDS011;8723;51.502;6.918;2023-10-09T11:18:03;15.43;;;11.57;;
17214;SDS011;8723;51.502;6.918;2023-10-09T11:20:34;13.15;;;11.15;;
17214;SDS011;8723;51.502;6.918;2023-10-09T11:23:02;13.20;;;11.23;;
17214;SDS011;8723;51.502;6.918;2023-10-09T11:25:41;15.75;;;11.57;;
17214;SDS011;8723;51.502;6.918;2023-10-09T11:28:16;14.02;;;10.75;;
17214;SDS011;8723;51.502;6.918;2023-10-09T11:30:55;15.00;;;11.63;;
17214;SDS011;8723;51.502;6.918;2023-10-09T11:33:41;16.15;;;12.13;;
17214;SDS011;8723;51.502;6.918;2023-10-09T11:36:10;15.93;;;12.43;;
17214;SDS011;8723;51.502;6.918;2023-10-09T11:38:37;13.82;;;10.15;;
17214;SDS011;8723;51.502;6.918;2023-10-09T11:41:11;13.93;;;10.52;;
17214;SDS011;8723;51.502;6.918;2023-10-09T11:43:47;14.40;;;11.43;;
17214;SDS011;8723;51.502;6.918;2023-10-09T11:46:17;12.40;;;10.57;;
17214;SDS011;8723;51.502;6.918;2023-10-09T11:49:04;14.93;;;12.60;;
17214;SDS011;8723;51.502;6.918;2023-10-09T11:51:51;15.23;;;13.23;;
17214;SDS011;8723;51.502;6.918;2023-10-09T11:54:55;16.33;;;14.37;;
17214;SDS011;8723;51.502;6.918;2023-10-09T11:57:22;16.70;;;12.63;;
17214;SDS011;8723;51.502;6.918;2023-10-09T11:59:55;15.30;;;12.60;;
17214;SDS011;8723;51.502;6.918;2023-10-09T12:02:22;15.90;;;13.27;;
17214;SDS011;8723;51.502;6.918;2023-10-09T12:04:49;14.77;;;11.50;;
17214;SDS011;8723;51.502;6.918;2023-10-09T12:07:17;15.18;;;11.80;;
17214;SDS011;8723;51.502;6.918;2023-10-09T12:09:45;15.23;;;12.80;;
17214;SDS011;8723;51.502;6.918;2023-10-09T12:12:14;15.07;;;12.10;;
17214;SDS011;8723;51.502;6.918;2023-10-09T12:14:40;16.92;;;11.95;;
17214;SDS011;8723;51.502;6.918;2023-10-09T12:17:07;16.65;;;12.65;;
17214;SDS011;8723;51.502;6.918;2023-10-09T12:19:34;16.73;;;11.95;;
17214;SDS011;8723;51.502;6.918;2023-10-09T12:22:02;15.80;;;12.05;;
17214;SDS011;8723;51.502;6.918;2023-10-09T12:24:32;14.70;;;12.20;;
17214;SDS011;8723;51.502;6.918;2023-10-09T12:27:00;16.27;;;11.50;;
17214;SDS011;8723;51.502;6.918;2023-10-09T12:29:27;14.30;;;11.13;;
17214;SDS011;8723;51.502;6.918;2023-10-09T12:31:55;16.05;;;11.77;;
17214;SDS011;8723;51.502;6.918;2023-10-09T12:34:24;12.83;;;11.13;;
17214;SDS011;8723;51.502;6.918;2023-10-09T12:36:52;15.52;;;11.93;;
17214;SDS011;8723;51.502;6.918;2023-10-09T12:39:19;14.85;;;11.32;;
17214;SDS011;8723;51.502;6.918;2023-10-09T12:41:48;15.70;;;11.93;;
17214;SDS011;8723;51.502;6.918;2023-10-09T12:44:18;15.95;;;12.88;;
17214;SDS011;8723;51.502;6.918;2023-10-09T12:46:46;17.15;;;12.70;;
17214;SDS011;8723;51.502;6.918;2023-10-09T12:49:18;13.00;;;10.88;;
17214;SDS011;8723;51.502;6.918;2023-10-09T12:51:50;14.50;;;12.23;;
17214;SDS011;8723;51.502;6.918;2023-10-09T12:54:17;17.27;;;12.70;;
17214;SDS011;8723;51.502;6.918;2023-10-09T12:56:45;15.40;;;12.82;;
17214;SDS011;8723;51.502;6.918;2023-10-09T12:59:15;14.15;;;12.18;;
17214;SDS011;8723;51.502;6.918;2023-10-09T13:01:46;15.57;;;12.00;;
17214;SDS011;8723;51.502;6.918;2023-10-09T13:04:17;14.20;;;11.48;;
17214;SDS011;8723;51.502;6.918;2023-10-09T13:06:47;13.07;;;11.40;;
17214;SDS011;8723;51.502;6.918;2023-10-09T13:09:18;15.38;;;12.43;;
17214;SDS011;8723;51.502;6.918;2023-10-09T13:11:51;15.32;;;12.65;;
17214;SDS011;8723;51.502;6.918;2023-10-09T13:14:18;15.20;;;12.68;;
17214;SDS011;8723;51.502;6.918;2023-10-09T13:16:47;16.95;;;12.35;;
17214;SDS011;8723;51.502;6.918;2023-10-09T13:19:15;13.35;;;10.90;;
17214;SDS011;8723;51.502;6.918;2023-10-09T13:21:43;16.95;;;13.20;;
17214;SDS011;8723;51.502;6.918;2023-10-09T13:24:10;14.98;;;11.75;;
17214;SDS011;8723;51.502;6.918;2023-10-09T13:26:40;17.97;;;13.13;;
17214;SDS011;8723;51.502;6.918;2023-10-09T13:29:11;14.57;;;11.40;;
17214;SDS011;8723;51.502;6.918;2023-10-09T13:31:47;16.42;;;12.95;;
17214;SDS011;8723;51.502;6.918;2023-10-09T13:34:16;16.92;;;13.45;;
17214;SDS011;8723;51.502;6.918;2023-10-09T13:36:43;17.73;;;13.60;;
17214;SDS011;8723;51.502;6.918;2023-10-09T13:39:17;16.13;;;12.05;;
17214;SDS011;8723;51.502;6.918;2023-10-09T13:41:52;15.82;;;12.82;;
17214;SDS011;8723;51.502;6.918;2023-10-09T13:44:24;12.23;;;10.57;;
17214;SDS011;8723;51.502;6.918;2023-10-09T13:46:53;14.82;;;11.10;;
17214;SDS011;8723;51.502;6.918;2023-10-09T13:49:20;12.15;;;10.48;;
17214;SDS011;8723;51.502;6.918;2023-10-09T13:51:48;14.00;;;11.10;;
17214;SDS011;8723;51.502;6.918;2023-10-09T13:54:16;17.67;;;12.90;;
17214;SDS011;8723;51.502;6.918;2023-10-09T13:56:46;18.65;;;13.73;;
17214;SDS011;8723;51.502;6.918;2023-10-09T13:59:18;19.83;;;13.37;;
17214;SDS011;8723;51.502;6.918;2023-10-09T14:01:47;24.52;;;14.00;;
17214;SDS011;8723;51.502;6.918;2023-10-09T14:04:15;22.13;;;12.93;;
17214;SDS011;8723;51.502;6.918;2023-10-09T14:06:43;32.53;;;16.42;;
17214;SDS011;8723;51.502;6.918;2023-10-09T14:09:12;21.02;;;14.38;;
17214;SDS011;8723;51.502;6.918;2023-10-09T14:11:53;14.77;;;12.15;;
17214;SDS011;8723;51.502;6.918;2023-10-09T14:14:31;16.37;;;13.40;;
17214;SDS011;8723;51.502;6.918;2023-10-09T14:17:04;13.47;;;11.60;;
17214;SDS011;8723;51.502;6.918;2023-10-09T14:19:37;15.77;;;13.52;;
17214;SDS011;8723;51.502;6.918;2023-10-09T14:22:05;14.45;;;12.13;;
17214;SDS011;8723;51.502;6.918;2023-10-09T14:24:32;17.23;;;13.63;;
17214;SDS011;8723;51.502;6.918;2023-10-09T14:26:59;18.88;;;13.55;;
17214;SDS011;8723;51.502;6.918;2023-10-09T14:29:29;16.77;;;13.00;;
17214;SDS011;8723;51.502;6.918;2023-10-09T14:31:56;15.98;;;12.98;;
17214;SDS011;8723;51.502;6.918;2023-10-09T14:34:27;14.32;;;12.10;;
17214;SDS011;8723;51.502;6.918;2023-10-09T14:36:58;15.63;;;13.52;;
17214;SDS011;8723;51.502;6.918;2023-10-09T14:39:26;17.95;;;14.70;;
17214;SDS011;8723;51.502;6.918;2023-10-09T14:41:54;21.40;;;15.63;;
17214;SDS011;8723;51.502;6.918;2023-10-09T14:44:22;16.17;;;13.80;;
17214;SDS011;8723;51.502;6.918;2023-10-09T14:46:49;18.48;;;13.95;;
17214;SDS011;8723;51.502;6.918;2023-10-09T14:49:16;17.83;;;15.17;;
17214;SDS011;8723;51.502;6.918;2023-10-09T14:51:47;19.17;;;14.77;;
17214;SDS011;8723;51.502;6.918;2023-10-09T14:54:15;18.67;;;14.43;;
17214;SDS011;8723;51.502;6.918;2023-10-09T14:56:43;18.02;;;15.65;;
17214;SDS011;8723;51.502;6.918;2023-10-09T14:59:10;18.10;;;14.63;;
17214;SDS011;8723;51.502;6.918;2023-10-09T15:01:38;20.42;;;15.00;;
17214;SDS011;8723;51.502;6.918;2023-10-09T15:04:04;17.15;;;13.88;;
17214;SDS011;8723;51.502;6.918;2023-10-09T15:06:32;20.13;;;15.75;;
17214;SDS011;8723;51.502;6.918;2023-10-09T15:09:01;19.33;;;15.52;;
17214;SDS011;8723;51.502;6.918;2023-10-09T15:11:34;17.67;;;13.95;;
17214;SDS011;8723;51.502;6.918;2023-10-09T15:14:03;16.15;;;14.00;;
17214;SDS011;8723;51.502;6.918;2023-10-09T15:16:31;16.85;;;13.95;;
17214;SDS011;8723;51.502;6.918;2023-10-09T15:18:58;19.92;;;15.88;;
17214;SDS011;8723;51.502;6.918;2023-10-09T15:21:27;16.42;;;14.18;;
17214;SDS011;8723;51.502;6.918;2023-10-09T15:23:57;17.60;;;15.07;;
17214;SDS011;8723;51.502;6.918;2023-10-09T15:26:26;18.92;;;14.13;;
17214;SDS011;8723;51.502;6.918;2023-10-09T15:28:57;20.35;;;14.80;;
17214;SDS011;8723;51.502;6.918;2023-10-09T15:31:31;19.20;;;16.77;;
17214;SDS011;8723;51.502;6.918;2023-10-09T15:33:59;15.70;;;12.83;;
17214;SDS011;8723;51.502;6.918;2023-10-09T15:36:26;16.08;;;13.45;;
17214;SDS011;8723;51.502;6.918;2023-10-09T15:38:57;20.25;;;16.73;;
17214;SDS011;8723;51.502;6.918;2023-10-09T15:41:27;17.65;;;15.50;;
17214;SDS011;8723;51.502;6.918;2023-10-09T15:43:56;19.55;;;16.17;;
17214;SDS011;8723;51.502;6.918;2023-10-09T15:46:24;22.60;;;17.42;;
17214;SDS011;8723;51.502;6.918;2023-10-09T15:48:52;16.63;;;14.57;;
17214;SDS011;8723;51.502;6.918;2023-10-09T15:51:21;19.48;;;15.85;;
17214;SDS011;8723;51.502;6.918;2023-10-09T15:53:48;19.77;;;15.30;;
17214;SDS011;8723;51.502;6.918;2023-10-09T15:56:16;19.08;;;15.07;;
17214;SDS011;8723;51.502;6.918;2023-10-09T15:58:45;21.17;;;16.30;;
17214;SDS011;8723;51.502;6.918;2023-10-09T16:01:12;15.90;;;13.15;;
17214;SDS011;8723;51.502;6.918;2023-10-09T16:03:40;22.80;;;16.60;;
17214;SDS011;8723;51.502;6.918;2023-10-09T16:06:08;18.88;;;15.48;;
17214;SDS011;8723;51.502;6.918;2023-10-09T16:08:37;18.92;;;15.32;;
17214;SDS011;8723;51.502;6.918;2023-10-09T16:11:04;17.27;;;15.07;;
17214;SDS011;8723;51.502;6.918;2023-10-09T16:13:32;17.40;;;14.95;;
17214;SDS011;8723;51.502;6.918;2023-10-09T16:16:00;16.10;;;13.00;;
17214;SDS011;8723;51.502;6.918;2023-10-09T16:18:32;21.80;;;15.73;;
17214;SDS011;8723;51.502;6.918;2023-10-09T16:21:00;16.20;;;13.45;;
17214;SDS011;8723;51.502;6.918;2023-10-09T16:23:29;17.17;;;15.15;;
17214;SDS011;8723;51.502;6.918;2023-10-09T16:25:56;17.63;;;13.73;;
17214;SDS011;8723;51.502;6.918;2023-10-09T16:28:24;16.90;;;13.95;;
17214;SDS011;8723;51.502;6.918;2023-10-09T16:30:51;16.50;;;13.83;;
17214;SDS011;8723;51.502;6.918;2023-10-09T16:33:20;20.60;;;15.57;;
17214;SDS011;8723;51.502;6.918;2023-10-09T16:35:48;18.92;;;14.60;;
17214;SDS011;8723;51.502;6.918;2023-10-09T16:38:16;16.40;;;13.27;;
17214;SDS011;8723;51.502;6.918;2023-10-09T16:40:51;21.08;;;16.02;;
17214;SDS011;8723;51.502;6.918;2023-10-09T16:43:19;18.67;;;14.38;;
17214;SDS011;8723;51.502;6.918;2023-10-09T16:45:50;20.75;;;15.93;;
17214;SDS011;8723;51.502;6.918;2023-10-09T16:48:23;20.92;;;16.20;;
17214;SDS011;8723;51.502;6.918;2023-10-09T16:50:53;20.10;;;15.80;;
17214;SDS011;8723;51.502;6.918;2023-10-09T16:53:20;16.38;;;14.23;;
17214;SDS011;8723;51.502;6.918;2023-10-09T16:55:47;20.73;;;15.38;;
17214;SDS011;8723;51.502;6.918;2023-10-09T16:58:14;18.50;;;14.70;;
17214;SDS011;8723;51.502;6.918;2023-10-09T17:00:41;19.77;;;14.73;;
17214;SDS011;8723;51.502;6.918;2023-10-09T17:03:11;18.80;;;14.52;;
17214;SDS011;8723;51.502;6.918;2023-10-09T17:05:41;21.17;;;15.07;;
17214;SDS011;8723;51.502;6.918;2023-10-09T17:08:22;20.08;;;14.30;;
17214;SDS011;8723;51.502;6.918;2023-10-09T17:10:54;20.40;;;14.80;;
17214;SDS011;8723;51.502;6.918;2023-10-09T17:13:22;18.52;;;14.18;;
17214;SDS011;8723;51.502;6.918;2023-10-09T17:15:49;19.88;;;15.95;;
17214;SDS011;8723;51.502;6.918;2023-10-09T17:18:18;20.20;;;15.38;;
17214;SDS011;8723;51.502;6.918;2023-10-09T17:20:48;19.52;;;15.43;;
17214;SDS011;8723;51.502;6.918;2023-10-09T17:23:15;17.15;;;13.85;;
17214;SDS011;8723;51.502;6.918;2023-10-09T17:25:42;16.08;;;13.35;;
17214;SDS011;8723;51.502;6.918;2023-10-09T17:28:10;19.35;;;14.88;;
17214;SDS011;8723;51.502;6.918;2023-10-09T17:30:42;18.85;;;13.52;;
17214;SDS011;8723;51.502;6.918;2023-10-09T17:33:10;18.67;;;13.23;;
17214;SDS011;8723;51.502;6.918;2023-10-09T17:35:38;17.00;;;13.30;;
17214;SDS011;8723;51.502;6.918;2023-10-09T17:38:07;17.45;;;13.35;;
17214;SDS011;8723;51.502;6.918;2023-10-09T17:40:34;19.25;;;13.57;;
17214;SDS011;8723;51.502;6.918;2023-10-09T17:43:01;21.17;;;13.77;;
17214;SDS011;8723;51.502;6.918;2023-10-09T17:45:30;19.13;;;13.70;;
17214;SDS011;8723;51.502;6.918;2023-10-09T17:47:59;19.25;;;13.23;;
17214;SDS011;8723;51.502;6.918;2023-10-09T17:50:33;16.33;;;13.57;;
17214;SDS011;8723;51.502;6.918;2023-10-09T17:53:00;17.70;;;13.43;;
17214;SDS011;8723;51.502;6.918;2023-10-09T17:55:31;18.48;;;13.27;;
17214;SDS011;8723;51.502;6.918;2023-10-09T17:58:00;23.15;;;13.93;;
17214;SDS011;8723;51.502;6.918;2023-10-09T18:00:33;19.23;;;14.20;;
17214;SDS011;8723;51.502;6.918;2023-10-09T18:03:01;16.65;;;12.48;;
17214;SDS011;8723;51.502;6.918;2023-10-09T18:05:28;18.20;;;13.50;;
17214;SDS011;8723;51.502;6.918;2023-10-09T18:07:55;17.02;;;14.23;;
17214;SDS011;8723;51.502;6.918;2023-10-09T18:10:24;19.97;;;14.60;;
17214;SDS011;8723;51.502;6.918;2023-10-09T18:12:52;18.95;;;14.48;;
17214;SDS011;8723;51.502;6.918;2023-10-09T18:15:18;20.63;;;15.00;;
17214;SDS011;8723;51.502;6.918;2023-10-09T18:17:45;20.17;;;13.25;;
17214;SDS011;8723;51.502;6.918;2023-10-09T18:20:13;20.08;;;14.23;;
17214;SDS011;8723;51.502;6.918;2023-10-09T18:22:45;20.90;;;14.85;;
17214;SDS011;8723;51.502;6.918;2023-10-09T18:25:12;20.00;;;15.25;;
17214;SDS011;8723;51.502;6.918;2023-10-09T18:27:40;19.30;;;14.43;;
17214;SDS011;8723;51.502;6.918;2023-10-09T18:30:08;17.27;;;13.80;;
17214;SDS011;8723;51.502;6.918;2023-10-09T18:32:36;18.60;;;13.77;;
17214;SDS011;8723;51.502;6.918;2023-10-09T18:35:04;20.40;;;14.90;;
17214;SDS011;8723;51.502;6.918;2023-10-09T18:37:32;19.15;;;14.68;;
17214;SDS011;8723;51.502;6.918;2023-10-09T18:39:59;22.05;;;15.00;;
17214;SDS011;8723;51.502;6.918;2023-10-09T18:42:26;22.03;;;15.40;;
17214;SDS011;8723;51.502;6.918;2023-10-09T18:44:54;17.20;;;13.83;;
17214;SDS011;8723;51.502;6.918;2023-10-09T18:47:22;22.50;;;15.47;;
17214;SDS011;8723;51.502;6.918;2023-10-09T18:49:49;20.75;;;15.20;;
17214;SDS011;8723;51.502;6.918;2023-10-09T18:52:16;22.02;;;15.38;;
17214;SDS011;8723;51.502;6.918;2023-10-09T18:54:43;20.42;;;14.85;;
17214;SDS011;8723;51.502;6.918;2023-10-09T18:57:10;21.10;;;14.82;;
17214;SDS011;8723;51.502;6.918;2023-10-09T18:59:37;20.50;;;15.10;;
17214;SDS011;8723;51.502;6.918;2023-10-09T19:02:07;22.33;;;15.98;;
17214;SDS011;8723;51.502;6.918;2023-10-09T19:04:37;21.33;;;14.80;;
17214;SDS011;8723;51.502;6.918;2023-10-09T19:07:04;19.03;;;13.67;;
17214;SDS011;8723;51.502;6.918;2023-10-09T19:09:31;20.30;;;14.48;;
17214;SDS011;8723;51.502;6.918;2023-10-09T19:11:58;21.38;;;14.20;;
17214;SDS011;8723;51.502;6.918;2023-10-09T19:14:24;19.10;;;14.23;;
17214;SDS011;8723;51.502;6.918;2023-10-09T19:16:54;21.42;;;15.13;;
17214;SDS011;8723;51.502;6.918;2023-10-09T19:19:24;21.98;;;15.07;;
17214;SDS011;8723;51.502;6.918;2023-10-09T19:21:53;22.17;;;14.90;;
17214;SDS011;8723;51.502;6.918;2023-10-09T19:24:19;20.42;;;15.35;;
17214;SDS011;8723;51.502;6.918;2023-10-09T19:26:46;22.17;;;14.80;;
17214;SDS011;8723;51.502;6.918;2023-10-09T19:29:13;21.40;;;15.60;;
17214;SDS011;8723;51.502;6.918;2023-10-09T19:31:40;21.27;;;15.25;;
17214;SDS011;8723;51.502;6.918;2023-10-09T19:34:07;19.58;;;14.65;;
17214;SDS011;8723;51.502;6.918;2023-10-09T19:36:38;21.77;;;15.23;;
17214;SDS011;8723;51.502;6.918;2023-10-09T19:39:07;19.92;;;15.13;;
17214;SDS011;8723;51.502;6.918;2023-10-09T19:41:34;20.10;;;14.38;;
17214;SDS011;8723;51.502;6.918;2023-10-09T19:44:02;20.10;;;14.35;;
17214;SDS011;8723;51.502;6.918;2023-10-09T19:46:30;19.83;;;14.55;;
17214;SDS011;8723;51.502;6.918;2023-10-09T19:48:58;19.67;;;14.15;;
17214;SDS011;8723;51.502;6.918;2023-10-09T19:51:26;17.40;;;13.85;;
17214;SDS011;8723;51.502;6.918;2023-10-09T19:53:54;18.38;;;14.45;;
17214;SDS011;8723;51.502;6.918;2023-10-09T19:56:22;19.67;;;14.50;;
17214;SDS011;8723;51.502;6.918;2023-10-09T19:58:50;17.67;;;14.27;;
17214;SDS011;8723;51.502;6.918;2023-10-09T20:01:19;19.42;;;14.63;;
17214;SDS011;8723;51.502;6.918;2023-10-09T20:03:48;19.75;;;14.93;;
17214;SDS011;8723;51.502;6.918;2023-10-09T20:06:17;19.13;;;15.57;;
17214;SDS011;8723;51.502;6.918;2023-10-09T20:08:44;20.05;;;16.48;;
17214;SDS011;8723;51.502;6.918;2023-10-09T20:11:12;18.65;;;14.70;;
17214;SDS011;8723;51.502;6.918;2023-10-09T20:13:40;19.90;;;15.32;;
17214;SDS011;8723;51.502;6.918;2023-10-09T20:16:08;19.73;;;15.50;;
17214;SDS011;8723;51.502;6.918;2023-10-09T20:18:35;19.08;;;15.38;;
17214;SDS011;8723;51.502;6.918;2023-10-09T20:21:02;24.15;;;16.52;;
17214;SDS011;8723;51.502;6.918;2023-10-09T20:23:31;21.92;;;15.73;;
17214;SDS011;8723;51.502;6.918;2023-10-09T20:25:58;24.73;;;16.85;;
17214;SDS011;8723;51.502;6.918;2023-10-09T20:28:26;22.48;;;17.55;;
17214;SDS011;8723;51.502;6.918;2023-10-09T20:30:54;21.98;;;16.70;;
17214;SDS011;8723;51.502;6.918;2023-10-09T20:33:26;21.75;;;17.48;;
17214;SDS011;8723;51.502;6.918;2023-10-09T20:36:01;23.17;;;18.80;;
17214;SDS011;8723;51.502;6.918;2023-10-09T20:38:29;21.05;;;18.73;;
17214;SDS011;8723;51.502;6.918;2023-10-09T20:40:56;21.60;;;16.93;;
17214;SDS011;8723;51.502;6.918;2023-10-09T20:43:22;23.52;;;17.88;;
17214;SDS011;8723;51.502;6.918;2023-10-09T20:45:52;21.92;;;17.98;;
17214;SDS011;8723;51.502;6.918;2023-10-09T20:48:21;20.27;;;17.80;;
17214;SDS011;8723;51.502;6.918;2023-10-09T20:50:47;25.52;;;17.77;;
17214;SDS011;8723;51.502;6.918;2023-10-09T20:53:14;23.07;;;18.43;;
17214;SDS011;8723;51.502;6.918;2023-10-09T20:55:41;21.38;;;17.30;;
17214;SDS011;8723;51.502;6.918;2023-10-09T20:58:08;23.23;;;18.58;;
17214;SDS011;8723;51.502;6.918;2023-10-09T21:00:35;21.95;;;18.60;;
17214;SDS011;8723;51.502;6.918;2023-10-09T21:03:04;23.80;;;19.13;;
17214;SDS011;8723;51.502;6.918;2023-10-09T21:05:32;22.67;;;18.40;;
17214;SDS011;8723;51.502;6.918;2023-10-09T21:07:59;22.38;;;17.90;;
17214;SDS011;8723;51.502;6.918;2023-10-09T21:10:26;22.85;;;17.80;;
17214;SDS011;8723;51.502;6.918;2023-10-09T21:12:55;19.88;;;16.23;;
17214;SDS011;8723;51.502;6.918;2023-10-09T21:15:23;21.17;;;16.45;;
17214;SDS011;8723;51.502;6.918;2023-10-09T21:17:52;19.10;;;15.65;;
17214;SDS011;8723;51.502;6.918;2023-10-09T21:20:20;20.13;;;15.43;;
17214;SDS011;8723;51.502;6.918;2023-10-09T21:22:54;17.83;;;15.50;;
17214;SDS011;8723;51.502;6.918;2023-10-09T21:25:21;18.30;;;14.35;;
17214;SDS011;8723;51.502;6.918;2023-10-09T21:27:48;18.70;;;14.93;;
17214;SDS011;8723;51.502;6.918;2023-10-09T21:30:17;18.05;;;16.00;;
17214;SDS011;8723;51.502;6.918;2023-10-09T21:32:44;17.43;;;15.53;;
17214;SDS011;8723;51.502;6.918;2023-10-09T21:35:12;18.85;;;15.00;;
17214;SDS011;8723;51.502;6.918;2023-10-09T21:37:46;19.48;;;15.50;;
17214;SDS011;8723;51.502;6.918;2023-10-09T21:40:15;17.17;;;14.97;;
17214;SDS011;8723;51.502;6.918;2023-10-09T21:42:48;19.88;;;16.10;;
17214;SDS011;8723;51.502;6.918;2023-10-09T21:45:17;16.88;;;15.10;;
17214;SDS011;8723;51.502;6.918;2023-10-09T21:47:44;22.35;;;16.00;;
17214;SDS011;8723;51.502;6.918;2023-10-09T21:50:11;18.70;;;15.30;;
17214;SDS011;8723;51.502;6.918;2023-10-09T21:52:38;17.65;;;14.93;;
17214;SDS011;8723;51.502;6.918;2023-10-09T21:55:07;19.73;;;15.40;;
17214;SDS011;8723;51.502;6.918;2023-10-09T21:57:34;20.60;;;16.17;;